Terminal Aerodrome Forecast
Issued by NWS Duluth, MN

Home | Current Version | Previous Version | Text Only | Print | Product List | Glossary On
Versions: 1 2 3 4 5 6 7 8 9 10 11 12 13 14 15 16 17 18 19 20 21 22
000
FTUS43 KDLH 182300
TAFDLH
TAF
KDLH 182337Z 1900/1924 09016KT P6SM BKN110
     FM190700 10012KT P6SM OVC060 WS020/16037KT
     FM190900 10017G27KT P6SM VCSH OVC050
     FM191100 12019G25KT 2SM -FZRA OVC040
     FM191500 14012KT 3SM -RA BR OVC035
     FM191900 17008KT P6SM SCT035 BKN100=

USA.gov is the U.S. government's official web portal to all federal, state and local government web resources and services.